sensor_id;sensor_type;location;lat;lon;timestamp;temperature;humidity
16976;DHT22;8604;48.148;-1.786;2023-07-20T00:00:01;16.80;99.90
16976;DHT22;8604;48.148;-1.786;2023-07-20T00:02:39;16.80;99.90
16976;DHT22;8604;48.148;-1.786;2023-07-20T00:05:07;16.80;99.90
16976;DHT22;8604;48.148;-1.786;2023-07-20T00:07:36;16.80;99.90
16976;DHT22;8604;48.148;-1.786;2023-07-20T00:10:04;16.90;99.90
16976;DHT22;8604;48.148;-1.786;2023-07-20T00:12:33;16.90;99.90
16976;DHT22;8604;48.148;-1.786;2023-07-20T00:15:03;16.90;99.90
16976;DHT22;8604;48.148;-1.786;2023-07-20T00:17:32;16.90;99.90
16976;DHT22;8604;48.148;-1.786;2023-07-20T00:20:00;16.90;99.90
16976;DHT22;8604;48.148;-1.786;2023-07-20T00:22:29;16.90;99.90
16976;DHT22;8604;48.148;-1.786;2023-07-20T00:24:57;16.90;99.90
16976;DHT22;8604;48.148;-1.786;2023-07-20T00:27:25;16.90;99.90
16976;DHT22;8604;48.148;-1.786;2023-07-20T00:29:54;16.90;99.90
16976;DHT22;8604;48.148;-1.786;2023-07-20T00:32:23;16.90;99.90
16976;DHT22;8604;48.148;-1.786;2023-07-20T00:34:51;16.80;99.90
16976;DHT22;8604;48.148;-1.786;2023-07-20T00:37:20;16.80;99.90
16976;DHT22;8604;48.148;-1.786;2023-07-20T00:39:48;16.80;99.90
16976;DHT22;8604;48.148;-1.786;2023-07-20T00:42:18;16.90;99.90
16976;DHT22;8604;48.148;-1.786;2023-07-20T00:44:46;16.90;99.90
16976;DHT22;8604;48.148;-1.786;2023-07-20T00:47:15;16.90;99.90
16976;DHT22;8604;48.148;-1.786;2023-07-20T00:49:45;16.90;99.90
16976;DHT22;8604;48.148;-1.786;2023-07-20T00:52:14;16.90;99.90
16976;DHT22;8604;48.148;-1.786;2023-07-20T00:54:43;17.00;99.90
16976;DHT22;8604;48.148;-1.786;2023-07-20T00:57:14;17.00;99.90
16976;DHT22;8604;48.148;-1.786;2023-07-20T00:59:43;17.10;99.90
16976;DHT22;8604;48.148;-1.786;2023-07-20T01:02:11;17.10;99.90
16976;DHT22;8604;48.148;-1.786;2023-07-20T01:04:40;17.10;99.90
16976;DHT22;8604;48.148;-1.786;2023-07-20T01:07:13;17.10;99.90
16976;DHT22;8604;48.148;-1.786;2023-07-20T01:09:52;17.20;99.90
16976;DHT22;8604;48.148;-1.786;2023-07-20T01:12:27;17.10;99.90
16976;DHT22;8604;48.148;-1.786;2023-07-20T01:14:58;17.20;99.90
16976;DHT22;8604;48.148;-1.786;2023-07-20T01:17:26;17.10;99.90
16976;DHT22;8604;48.148;-1.786;2023-07-20T01:19:55;17.20;99.90
16976;DHT22;8604;48.148;-1.786;2023-07-20T01:22:42;17.10;99.90
16976;DHT22;8604;48.148;-1.786;2023-07-20T01:25:25;17.10;99.90
16976;DHT22;8604;48.148;-1.786;2023-07-20T01:28:20;17.00;99.90
16976;DHT22;8604;48.148;-1.786;2023-07-20T01:33:34;16.80;99.90
16976;DHT22;8604;48.148;-1.786;2023-07-20T01:36:04;16.90;99.90
16976;DHT22;8604;48.148;-1.786;2023-07-20T01:38:33;16.80;99.90
16976;DHT22;8604;48.148;-1.786;2023-07-20T01:41:02;16.80;99.90
16976;DHT22;8604;48.148;-1.786;2023-07-20T01:43:30;16.70;99.90
16976;DHT22;8604;48.148;-1.786;2023-07-20T01:45:59;16.70;99.90
16976;DHT22;8604;48.148;-1.786;2023-07-20T01:48:27;16.60;99.90
16976;DHT22;8604;48.148;-1.786;2023-07-20T01:50:57;16.60;99.90
16976;DHT22;8604;48.148;-1.786;2023-07-20T01:53:25;16.50;99.90
16976;DHT22;8604;48.148;-1.786;2023-07-20T01:55:54;16.50;99.90
16976;DHT22;8604;48.148;-1.786;2023-07-20T01:58:22;16.50;99.90
16976;DHT22;8604;48.148;-1.786;2023-07-20T02:00:51;16.40;99.90
16976;DHT22;8604;48.148;-1.786;2023-07-20T02:03:20;16.40;99.90
16976;DHT22;8604;48.148;-1.786;2023-07-20T02:05:50;16.40;99.90
16976;DHT22;8604;48.148;-1.786;2023-07-20T02:08:20;16.30;99.90
16976;DHT22;8604;48.148;-1.786;2023-07-20T02:10:49;16.30;99.90
16976;DHT22;8604;48.148;-1.786;2023-07-20T02:13:17;16.30;99.90
16976;DHT22;8604;48.148;-1.786;2023-07-20T02:15:46;16.30;99.90
16976;DHT22;8604;48.148;-1.786;2023-07-20T02:18:16;16.30;99.90
16976;DHT22;8604;48.148;-1.786;2023-07-20T02:20:44;16.30;99.90
16976;DHT22;8604;48.148;-1.786;2023-07-20T02:23:13;16.20;99.90
16976;DHT22;8604;48.148;-1.786;2023-07-20T02:25:42;16.20;99.90
16976;DHT22;8604;48.148;-1.786;2023-07-20T02:28:13;16.20;99.90
16976;DHT22;8604;48.148;-1.786;2023-07-20T02:30:42;16.20;99.90
16976;DHT22;8604;48.148;-1.786;2023-07-20T02:33:10;16.20;99.90
16976;DHT22;8604;48.148;-1.786;2023-07-20T02:35:40;16.10;99.90
16976;DHT22;8604;48.148;-1.786;2023-07-20T02:38:08;16.10;99.90
16976;DHT22;8604;48.148;-1.786;2023-07-20T02:40:36;16.10;99.90
16976;DHT22;8604;48.148;-1.786;2023-07-20T02:43:06;16.00;99.90
16976;DHT22;8604;48.148;-1.786;2023-07-20T02:45:34;16.00;99.90
16976;DHT22;8604;48.148;-1.786;2023-07-20T02:48:03;16.00;99.90
16976;DHT22;8604;48.148;-1.786;2023-07-20T02:50:35;15.90;99.90
16976;DHT22;8604;48.148;-1.786;2023-07-20T02:53:03;15.90;99.90
16976;DHT22;8604;48.148;-1.786;2023-07-20T02:55:31;15.90;99.90
16976;DHT22;8604;48.148;-1.786;2023-07-20T02:58:00;15.90;99.90
16976;DHT22;8604;48.148;-1.786;2023-07-20T03:00:29;15.90;99.90
16976;DHT22;8604;48.148;-1.786;2023-07-20T03:02:58;15.80;99.90
16976;DHT22;8604;48.148;-1.786;2023-07-20T03:05:26;15.80;99.90
16976;DHT22;8604;48.148;-1.786;2023-07-20T03:07:55;15.80;99.90
16976;DHT22;8604;48.148;-1.786;2023-07-20T03:10:23;15.80;99.90
16976;DHT22;8604;48.148;-1.786;2023-07-20T03:12:51;15.80;99.90
16976;DHT22;8604;48.148;-1.786;2023-07-20T03:15:20;15.80;99.90
16976;DHT22;8604;48.148;-1.786;2023-07-20T03:17:50;15.70;99.90
16976;DHT22;8604;48.148;-1.786;2023-07-20T03:20:18;15.70;99.90
16976;DHT22;8604;48.148;-1.786;2023-07-20T03:22:47;15.70;99.90
16976;DHT22;8604;48.148;-1.786;2023-07-20T03:25:15;15.70;99.90
16976;DHT22;8604;48.148;-1.786;2023-07-20T03:27:45;15.70;99.90
16976;DHT22;8604;48.148;-1.786;2023-07-20T03:30:14;15.60;99.90
16976;DHT22;8604;48.148;-1.786;2023-07-20T03:32:42;15.60;99.90
16976;DHT22;8604;48.148;-1.786;2023-07-20T03:35:12;15.60;99.90
16976;DHT22;8604;48.148;-1.786;2023-07-20T03:37:40;15.60;99.90
16976;DHT22;8604;48.148;-1.786;2023-07-20T03:40:09;15.60;99.90
16976;DHT22;8604;48.148;-1.786;2023-07-20T03:42:38;15.50;99.90
16976;DHT22;8604;48.148;-1.786;2023-07-20T03:45:07;15.50;99.90
16976;DHT22;8604;48.148;-1.786;2023-07-20T03:47:35;15.40;99.90
16976;DHT22;8604;48.148;-1.786;2023-07-20T03:50:05;15.40;99.90
16976;DHT22;8604;48.148;-1.786;2023-07-20T03:52:35;15.40;99.90
16976;DHT22;8604;48.148;-1.786;2023-07-20T03:55:03;15.40;99.90
16976;DHT22;8604;48.148;-1.786;2023-07-20T03:57:32;15.40;99.90
16976;DHT22;8604;48.148;-1.786;2023-07-20T04:00:00;15.30;99.90
16976;DHT22;8604;48.148;-1.786;2023-07-20T04:02:38;15.30;99.90
16976;DHT22;8604;48.148;-1.786;2023-07-20T04:05:07;15.30;99.90
16976;DHT22;8604;48.148;-1.786;2023-07-20T04:07:37;15.30;99.90
16976;DHT22;8604;48.148;-1.786;2023-07-20T04:10:06;15.30;99.90
16976;DHT22;8604;48.148;-1.786;2023-07-20T04:12:35;15.30;99.90
16976;DHT22;8604;48.148;-1.786;2023-07-20T04:15:04;15.30;99.90
16976;DHT22;8604;48.148;-1.786;2023-07-20T04:17:33;15.20;99.90
16976;DHT22;8604;48.148;-1.786;2023-07-20T04:20:01;15.20;99.90
16976;DHT22;8604;48.148;-1.786;2023-07-20T04:22:31;15.20;99.90
16976;DHT22;8604;48.148;-1.786;2023-07-20T04:25:02;15.20;99.90
16976;DHT22;8604;48.148;-1.786;2023-07-20T04:27:30;15.20;99.90
16976;DHT22;8604;48.148;-1.786;2023-07-20T04:29:59;15.20;99.90
16976;DHT22;8604;48.148;-1.786;2023-07-20T04:32:29;15.20;99.90
16976;DHT22;8604;48.148;-1.786;2023-07-20T04:34:57;15.20;99.90
16976;DHT22;8604;48.148;-1.786;2023-07-20T04:37:26;15.10;99.90
16976;DHT22;8604;48.148;-1.786;2023-07-20T04:39:54;15.10;99.90
16976;DHT22;8604;48.148;-1.786;2023-07-20T04:42:24;15.10;99.90
16976;DHT22;8604;48.148;-1.786;2023-07-20T04:44:52;15.10;99.90
16976;DHT22;8604;48.148;-1.786;2023-07-20T04:47:21;15.10;99.90
16976;DHT22;8604;48.148;-1.786;2023-07-20T04:49:50;15.20;99.90
16976;DHT22;8604;48.148;-1.786;2023-07-20T04:52:19;15.20;99.90
16976;DHT22;8604;48.148;-1.786;2023-07-20T04:54:57;15.20;99.90
16976;DHT22;8604;48.148;-1.786;2023-07-20T04:57:27;15.20;99.90
16976;DHT22;8604;48.148;-1.786;2023-07-20T04:59:56;15.20;99.90
16976;DHT22;8604;48.148;-1.786;2023-07-20T05:02:24;15.20;99.90
16976;DHT22;8604;48.148;-1.786;2023-07-20T05:04:53;15.20;99.90
16976;DHT22;8604;48.148;-1.786;2023-07-20T05:07:21;15.20;99.90
16976;DHT22;8604;48.148;-1.786;2023-07-20T05:09:50;15.30;99.90
16976;DHT22;8604;48.148;-1.786;2023-07-20T05:12:18;15.30;99.90
16976;DHT22;8604;48.148;-1.786;2023-07-20T05:14:48;15.30;99.90
16976;DHT22;8604;48.148;-1.786;2023-07-20T05:17:16;15.30;99.90
16976;DHT22;8604;48.148;-1.786;2023-07-20T05:19:45;15.40;99.90
16976;DHT22;8604;48.148;-1.786;2023-07-20T05:22:14;15.40;99.90
16976;DHT22;8604;48.148;-1.786;2023-07-20T05:24:43;15.50;99.90
16976;DHT22;8604;48.148;-1.786;2023-07-20T05:27:11;15.50;99.90
16976;DHT22;8604;48.148;-1.786;2023-07-20T05:29:43;15.50;99.90
16976;DHT22;8604;48.148;-1.786;2023-07-20T05:32:16;15.50;99.90
16976;DHT22;8604;48.148;-1.786;2023-07-20T05:34:44;15.50;99.90
16976;DHT22;8604;48.148;-1.786;2023-07-20T05:37:13;15.50;99.90
16976;DHT22;8604;48.148;-1.786;2023-07-20T05:39:41;15.50;99.90
16976;DHT22;8604;48.148;-1.786;2023-07-20T05:42:10;15.60;99.90
16976;DHT22;8604;48.148;-1.786;2023-07-20T05:44:39;15.60;99.90
16976;DHT22;8604;48.148;-1.786;2023-07-20T05:47:08;15.70;99.90
16976;DHT22;8604;48.148;-1.786;2023-07-20T05:49:37;15.70;99.90
16976;DHT22;8604;48.148;-1.786;2023-07-20T05:52:06;15.80;99.90
16976;DHT22;8604;48.148;-1.786;2023-07-20T05:54:34;15.80;99.90
16976;DHT22;8604;48.148;-1.786;2023-07-20T05:57:39;15.90;99.90
16976;DHT22;8604;48.148;-1.786;2023-07-20T06:00:10;15.90;99.90
16976;DHT22;8604;48.148;-1.786;2023-07-20T06:02:43;16.00;99.90
16976;DHT22;8604;48.148;-1.786;2023-07-20T06:05:13;16.10;99.90
16976;DHT22;8604;48.148;-1.786;2023-07-20T06:07:42;16.10;99.90
16976;DHT22;8604;48.148;-1.786;2023-07-20T06:10:10;16.20;99.90
16976;DHT22;8604;48.148;-1.786;2023-07-20T06:12:43;16.20;99.90
16976;DHT22;8604;48.148;-1.786;2023-07-20T06:15:26;16.20;99.90
16976;DHT22;8604;48.148;-1.786;2023-07-20T06:18:14;16.20;99.90
16976;DHT22;8604;48.148;-1.786;2023-07-20T06:21:07;16.20;99.90
16976;DHT22;8604;48.148;-1.786;2023-07-20T06:24:08;16.30;99.90
16976;DHT22;8604;48.148;-1.786;2023-07-20T06:26:47;16.40;99.90
16976;DHT22;8604;48.148;-1.786;2023-07-20T06:29:29;16.50;99.90
16976;DHT22;8604;48.148;-1.786;2023-07-20T06:32:20;16.60;99.90
16976;DHT22;8604;48.148;-1.786;2023-07-20T06:35:00;16.60;99.90
16976;DHT22;8604;48.148;-1.786;2023-07-20T06:37:58;16.80;99.90
16976;DHT22;8604;48.148;-1.786;2023-07-20T06:41:19;16.90;99.90
16976;DHT22;8604;48.148;-1.786;2023-07-20T06:44:09;17.10;99.90
16976;DHT22;8604;48.148;-1.786;2023-07-20T06:47:39;17.30;99.90
16976;DHT22;8604;48.148;-1.786;2023-07-20T06:50:09;17.50;99.90
16976;DHT22;8604;48.148;-1.786;2023-07-20T06:52:44;17.60;99.90
16976;DHT22;8604;48.148;-1.786;2023-07-20T06:55:16;17.60;99.90
16976;DHT22;8604;48.148;-1.786;2023-07-20T06:57:48;17.90;99.90
16976;DHT22;8604;48.148;-1.786;2023-07-20T07:00:16;18.00;99.90
16976;DHT22;8604;48.148;-1.786;2023-07-20T07:02:45;18.10;99.90
16976;DHT22;8604;48.148;-1.786;2023-07-20T07:05:17;18.30;99.90
16976;DHT22;8604;48.148;-1.786;2023-07-20T07:07:47;18.50;99.90
16976;DHT22;8604;48.148;-1.786;2023-07-20T07:10:17;18.70;99.90
16976;DHT22;8604;48.148;-1.786;2023-07-20T07:12:45;18.90;99.90
16976;DHT22;8604;48.148;-1.786;2023-07-20T07:15:14;19.00;99.90
16976;DHT22;8604;48.148;-1.786;2023-07-20T07:17:43;19.30;99.90
16976;DHT22;8604;48.148;-1.786;2023-07-20T07:20:12;19.40;99.90
16976;DHT22;8604;48.148;-1.786;2023-07-20T07:22:47;19.50;99.90
16976;DHT22;8604;48.148;-1.786;2023-07-20T07:25:18;19.50;99.90
16976;DHT22;8604;48.148;-1.786;2023-07-20T07:27:50;19.50;99.90
16976;DHT22;8604;48.148;-1.786;2023-07-20T07:30:20;19.50;99.90
16976;DHT22;8604;48.148;-1.786;2023-07-20T07:32:48;19.50;99.90
16976;DHT22;8604;48.148;-1.786;2023-07-20T07:35:17;19.50;99.90
16976;DHT22;8604;48.148;-1.786;2023-07-20T07:37:45;19.60;99.90
16976;DHT22;8604;48.148;-1.786;2023-07-20T07:40:35;19.60;99.90
16976;DHT22;8604;48.148;-1.786;2023-07-20T07:43:03;19.60;99.90
16976;DHT22;8604;48.148;-1.786;2023-07-20T07:45:34;19.60;99.90
16976;DHT22;8604;48.148;-1.786;2023-07-20T07:48:05;19.80;99.90
16976;DHT22;8604;48.148;-1.786;2023-07-20T07:50:34;19.90;99.90
16976;DHT22;8604;48.148;-1.786;2023-07-20T07:53:02;19.90;99.90
16976;DHT22;8604;48.148;-1.786;2023-07-20T07:55:31;20.00;99.90
16976;DHT22;8604;48.148;-1.786;2023-07-20T07:58:01;20.00;99.90
16976;DHT22;8604;48.148;-1.786;2023-07-20T08:00:29;19.90;99.90
16976;DHT22;8604;48.148;-1.786;2023-07-20T08:02:58;20.00;99.90
16976;DHT22;8604;48.148;-1.786;2023-07-20T08:05:28;20.10;99.90
16976;DHT22;8604;48.148;-1.786;2023-07-20T08:07:56;20.10;99.90
16976;DHT22;8604;48.148;-1.786;2023-07-20T08:10:24;20.30;99.90
16976;DHT22;8604;48.148;-1.786;2023-07-20T08:12:53;20.30;99.90
16976;DHT22;8604;48.148;-1.786;2023-07-20T08:15:23;20.50;99.90
16976;DHT22;8604;48.148;-1.786;2023-07-20T08:17:52;20.80;99.90
16976;DHT22;8604;48.148;-1.786;2023-07-20T08:20:21;21.00;99.90
16976;DHT22;8604;48.148;-1.786;2023-07-20T08:22:54;21.30;99.90
16976;DHT22;8604;48.148;-1.786;2023-07-20T08:25:22;21.50;99.90
16976;DHT22;8604;48.148;-1.786;2023-07-20T08:27:51;21.50;99.90
16976;DHT22;8604;48.148;-1.786;2023-07-20T08:30:22;21.40;99.90
16976;DHT22;8604;48.148;-1.786;2023-07-20T08:32:51;21.40;99.90
16976;DHT22;8604;48.148;-1.786;2023-07-20T08:35:20;21.50;99.90
16976;DHT22;8604;48.148;-1.786;2023-07-20T08:38:14;21.70;99.90
16976;DHT22;8604;48.148;-1.786;2023-07-20T08:40:44;22.10;99.90
16976;DHT22;8604;48.148;-1.786;2023-07-20T08:43:13;22.80;99.90
16976;DHT22;8604;48.148;-1.786;2023-07-20T08:45:45;23.70;99.90
16976;DHT22;8604;48.148;-1.786;2023-07-20T08:48:13;24.00;99.90
16976;DHT22;8604;48.148;-1.786;2023-07-20T08:50:43;24.50;99.90
16976;DHT22;8604;48.148;-1.786;2023-07-20T08:53:12;24.80;99.90
16976;DHT22;8604;48.148;-1.786;2023-07-20T08:55:42;25.10;99.90
16976;DHT22;8604;48.148;-1.786;2023-07-20T08:58:12;25.10;99.90
16976;DHT22;8604;48.148;-1.786;2023-07-20T09:00:42;25.10;99.90
16976;DHT22;8604;48.148;-1.786;2023-07-20T09:03:14;25.10;99.90
16976;DHT22;8604;48.148;-1.786;2023-07-20T09:05:44;25.40;99.90
16976;DHT22;8604;48.148;-1.786;2023-07-20T09:08:13;25.70;99.90
16976;DHT22;8604;48.148;-1.786;2023-07-20T09:10:41;25.60;99.90
16976;DHT22;8604;48.148;-1.786;2023-07-20T09:13:10;25.60;99.90
16976;DHT22;8604;48.148;-1.786;2023-07-20T09:15:46;25.50;99.90
16976;DHT22;8604;48.148;-1.786;2023-07-20T09:18:24;25.70;99.90
16976;DHT22;8604;48.148;-1.786;2023-07-20T09:20:53;25.90;99.90
16976;DHT22;8604;48.148;-1.786;2023-07-20T09:23:30;26.30;99.90
16976;DHT22;8604;48.148;-1.786;2023-07-20T09:25:59;26.30;99.90
16976;DHT22;8604;48.148;-1.786;2023-07-20T09:28:28;26.30;99.90
16976;DHT22;8604;48.148;-1.786;2023-07-20T09:30:56;27.10;99.90
16976;DHT22;8604;48.148;-1.786;2023-07-20T09:33:27;27.80;99.90
16976;DHT22;8604;48.148;-1.786;2023-07-20T09:36:02;27.60;99.90
16976;DHT22;8604;48.148;-1.786;2023-07-20T09:38:50;27.40;99.90
16976;DHT22;8604;48.148;-1.786;2023-07-20T09:41:22;28.20;99.90
16976;DHT22;8604;48.148;-1.786;2023-07-20T09:43:53;28.80;99.90
16976;DHT22;8604;48.148;-1.786;2023-07-20T09:46:22;29.50;99.90
16976;DHT22;8604;48.148;-1.786;2023-07-20T09:48:55;30.20;99.90
16976;DHT22;8604;48.148;-1.786;2023-07-20T09:51:27;29.80;99.90
16976;DHT22;8604;48.148;-1.786;2023-07-20T09:53:56;29.30;99.90
16976;DHT22;8604;48.148;-1.786;2023-07-20T09:56:25;28.70;99.90
16976;DHT22;8604;48.148;-1.786;2023-07-20T09:58:55;28.10;99.90
16976;DHT22;8604;48.148;-1.786;2023-07-20T10:01:24;27.80;99.90
16976;DHT22;8604;48.148;-1.786;2023-07-20T10:03:58;27.30;99.90
16976;DHT22;8604;48.148;-1.786;2023-07-20T10:06:30;27.00;99.90
16976;DHT22;8604;48.148;-1.786;2023-07-20T10:09:02;26.70;99.90
16976;DHT22;8604;48.148;-1.786;2023-07-20T10:11:34;26.40;99.90
16976;DHT22;8604;48.148;-1.786;2023-07-20T10:14:04;26.20;99.90
16976;DHT22;8604;48.148;-1.786;2023-07-20T10:16:35;26.20;99.90
16976;DHT22;8604;48.148;-1.786;2023-07-20T10:19:11;27.30;99.90
16976;DHT22;8604;48.148;-1.786;2023-07-20T10:21:47;28.30;99.90
16976;DHT22;8604;48.148;-1.786;2023-07-20T10:24:23;28.90;99.90
16976;DHT22;8604;48.148;-1.786;2023-07-20T10:26:52;29.80;99.90
16976;DHT22;8604;48.148;-1.786;2023-07-20T10:29:20;30.00;99.90
16976;DHT22;8604;48.148;-1.786;2023-07-20T10:31:49;30.60;99.90
16976;DHT22;8604;48.148;-1.786;2023-07-20T10:34:23;31.30;99.90
16976;DHT22;8604;48.148;-1.786;2023-07-20T10:36:51;31.20;99.90
16976;DHT22;8604;48.148;-1.786;2023-07-20T10:39:25;30.50;99.90
16976;DHT22;8604;48.148;-1.786;2023-07-20T10:42:07;30.20;99.90
16976;DHT22;8604;48.148;-1.786;2023-07-20T10:44:37;30.70;99.90
16976;DHT22;8604;48.148;-1.786;2023-07-20T10:47:09;30.60;99.90
16976;DHT22;8604;48.148;-1.786;2023-07-20T10:49:58;30.90;99.90
16976;DHT22;8604;48.148;-1.786;2023-07-20T10:52:36;30.40;99.90
16976;DHT22;8604;48.148;-1.786;2023-07-20T10:55:10;29.60;99.90
16976;DHT22;8604;48.148;-1.786;2023-07-20T10:57:39;29.10;99.90
16976;DHT22;8604;48.148;-1.786;2023-07-20T11:00:10;28.80;99.90
16976;DHT22;8604;48.148;-1.786;2023-07-20T11:02:45;28.50;99.90
16976;DHT22;8604;48.148;-1.786;2023-07-20T11:05:36;28.80;99.90
16976;DHT22;8604;48.148;-1.786;2023-07-20T11:08:05;28.70;99.90
16976;DHT22;8604;48.148;-1.786;2023-07-20T11:10:34;28.80;99.90
16976;DHT22;8604;48.148;-1.786;2023-07-20T11:13:19;28.50;99.90
16976;DHT22;8604;48.148;-1.786;2023-07-20T11:16:01;28.50;99.90
16976;DHT22;8604;48.148;-1.786;2023-07-20T11:18:30;28.40;99.90
16976;DHT22;8604;48.148;-1.786;2023-07-20T11:21:02;28.40;99.90
16976;DHT22;8604;48.148;-1.786;2023-07-20T11:23:31;28.70;99.90
16976;DHT22;8604;48.148;-1.786;2023-07-20T11:26:00;28.70;99.90
16976;DHT22;8604;48.148;-1.786;2023-07-20T11:28:31;29.10;99.90
16976;DHT22;8604;48.148;-1.786;2023-07-20T11:30:59;29.50;99.90
16976;DHT22;8604;48.148;-1.786;2023-07-20T11:33:27;29.50;99.90
16976;DHT22;8604;48.148;-1.786;2023-07-20T11:35:55;29.40;99.90
16976;DHT22;8604;48.148;-1.786;2023-07-20T11:38:25;29.10;99.90
16976;DHT22;8604;48.148;-1.786;2023-07-20T11:40:54;29.00;99.90
16976;DHT22;8604;48.148;-1.786;2023-07-20T11:43:23;29.00;99.90
16976;DHT22;8604;48.148;-1.786;2023-07-20T11:45:53;29.20;99.90
16976;DHT22;8604;48.148;-1.786;2023-07-20T11:48:21;29.60;99.90
16976;DHT22;8604;48.148;-1.786;2023-07-20T11:50:49;29.70;99.90
16976;DHT22;8604;48.148;-1.786;2023-07-20T11:53:18;29.50;99.90
16976;DHT22;8604;48.148;-1.786;2023-07-20T11:55:49;29.50;99.90
16976;DHT22;8604;48.148;-1.786;2023-07-20T11:58:17;29.60;99.90
16976;DHT22;8604;48.148;-1.786;2023-07-20T12:00:46;29.50;99.90
16976;DHT22;8604;48.148;-1.786;2023-07-20T12:03:14;29.50;99.90
16976;DHT22;8604;48.148;-1.786;2023-07-20T12:05:42;30.00;99.90
16976;DHT22;8604;48.148;-1.786;2023-07-20T12:08:27;30.10;99.90
16976;DHT22;8604;48.148;-1.786;2023-07-20T12:10:57;30.30;99.90
16976;DHT22;8604;48.148;-1.786;2023-07-20T12:13:35;30.30;99.90
16976;DHT22;8604;48.148;-1.786;2023-07-20T12:16:10;29.90;99.90
16976;DHT22;8604;48.148;-1.786;2023-07-20T12:18:40;30.00;99.90
16976;DHT22;8604;48.148;-1.786;2023-07-20T12:21:09;29.70;99.90
16976;DHT22;8604;48.148;-1.786;2023-07-20T12:23:39;29.30;99.90
16976;DHT22;8604;48.148;-1.786;2023-07-20T12:29:42;29.60;99.90
16976;DHT22;8604;48.148;-1.786;2023-07-20T12:32:11;29.90;99.90
16976;DHT22;8604;48.148;-1.786;2023-07-20T12:34:40;30.00;99.90
16976;DHT22;8604;48.148;-1.786;2023-07-20T12:37:08;29.80;99.90
16976;DHT22;8604;48.148;-1.786;2023-07-20T12:39:39;29.90;99.90
16976;DHT22;8604;48.148;-1.786;2023-07-20T12:42:08;30.00;99.90
16976;DHT22;8604;48.148;-1.786;2023-07-20T12:44:37;29.90;99.90
16976;DHT22;8604;48.148;-1.786;2023-07-20T12:47:07;29.70;99.90
16976;DHT22;8604;48.148;-1.786;2023-07-20T12:49:36;29.70;99.90
16976;DHT22;8604;48.148;-1.786;2023-07-20T12:52:05;29.60;99.90
16976;DHT22;8604;48.148;-1.786;2023-07-20T12:54:34;29.60;99.90
16976;DHT22;8604;48.148;-1.786;2023-07-20T12:57:03;29.50;99.90
16976;DHT22;8604;48.148;-1.786;2023-07-20T12:59:35;29.60;99.90
16976;DHT22;8604;48.148;-1.786;2023-07-20T13:02:04;29.30;99.90
16976;DHT22;8604;48.148;-1.786;2023-07-20T13:04:35;29.10;99.90
16976;DHT22;8604;48.148;-1.786;2023-07-20T13:07:04;29.00;99.90
16976;DHT22;8604;48.148;-1.786;2023-07-20T13:09:52;28.70;99.90
16976;DHT22;8604;48.148;-1.786;2023-07-20T13:12:21;28.40;99.90
16976;DHT22;8604;48.148;-1.786;2023-07-20T13:14:50;28.40;99.90
16976;DHT22;8604;48.148;-1.786;2023-07-20T13:17:18;28.50;99.90
16976;DHT22;8604;48.148;-1.786;2023-07-20T13:19:48;28.50;99.90
16976;DHT22;8604;48.148;-1.786;2023-07-20T13:22:17;28.50;99.90
16976;DHT22;8604;48.148;-1.786;2023-07-20T13:24:46;28.40;99.90
16976;DHT22;8604;48.148;-1.786;2023-07-20T13:27:16;28.50;99.90
16976;DHT22;8604;48.148;-1.786;2023-07-20T13:29:46;28.20;99.90
16976;DHT22;8604;48.148;-1.786;2023-07-20T13:32:15;27.90;99.90
16976;DHT22;8604;48.148;-1.786;2023-07-20T13:34:45;27.50;99.90
16976;DHT22;8604;48.148;-1.786;2023-07-20T13:37:16;27.30;99.90
16976;DHT22;8604;48.148;-1.786;2023-07-20T13:39:48;27.40;99.90
16976;DHT22;8604;48.148;-1.786;2023-07-20T13:42:16;27.20;99.90
16976;DHT22;8604;48.148;-1.786;2023-07-20T13:44:46;27.10;99.90
16976;DHT22;8604;48.148;-1.786;2023-07-20T13:47:14;27.10;99.90
16976;DHT22;8604;48.148;-1.786;2023-07-20T13:49:46;27.00;99.90
16976;DHT22;8604;48.148;-1.786;2023-07-20T13:52:16;26.80;99.90
16976;DHT22;8604;48.148;-1.786;2023-07-20T13:54:48;26.80;99.90
16976;DHT22;8604;48.148;-1.786;2023-07-20T13:57:21;26.80;99.90
16976;DHT22;8604;48.148;-1.786;2023-07-20T13:59:50;26.60;99.90
16976;DHT22;8604;48.148;-1.786;2023-07-20T14:02:18;26.40;99.90
16976;DHT22;8604;48.148;-1.786;2023-07-20T14:04:50;26.20;99.90
16976;DHT22;8604;48.148;-1.786;2023-07-20T14:07:40;25.90;99.90
16976;DHT22;8604;48.148;-1.786;2023-07-20T14:10:10;25.80;99.90
16976;DHT22;8604;48.148;-1.786;2023-07-20T14:12:42;25.80;99.90
16976;DHT22;8604;48.148;-1.786;2023-07-20T14:15:10;25.80;99.90
16976;DHT22;8604;48.148;-1.786;2023-07-20T14:17:39;25.80;99.90
16976;DHT22;8604;48.148;-1.786;2023-07-20T14:20:14;25.80;99.90
16976;DHT22;8604;48.148;-1.786;2023-07-20T14:23:11;25.70;99.90
16976;DHT22;8604;48.148;-1.786;2023-07-20T14:25:41;25.70;99.90
16976;DHT22;8604;48.148;-1.786;2023-07-20T14:28:09;25.50;99.90
16976;DHT22;8604;48.148;-1.786;2023-07-20T14:30:39;25.30;99.90
16976;DHT22;8604;48.148;-1.786;2023-07-20T14:33:07;25.30;99.90
16976;DHT22;8604;48.148;-1.786;2023-07-20T14:35:36;25.30;99.90
16976;DHT22;8604;48.148;-1.786;2023-07-20T14:38:05;25.30;99.90
16976;DHT22;8604;48.148;-1.786;2023-07-20T14:40:35;25.40;99.90
16976;DHT22;8604;48.148;-1.786;2023-07-20T14:43:03;25.40;99.90
16976;DHT22;8604;48.148;-1.786;2023-07-20T14:45:32;25.40;99.90
16976;DHT22;8604;48.148;-1.786;2023-07-20T14:48:00;25.20;99.90
16976;DHT22;8604;48.148;-1.786;2023-07-20T14:50:29;25.10;99.90
16976;DHT22;8604;48.148;-1.786;2023-07-20T14:52:58;25.10;99.90
16976;DHT22;8604;48.148;-1.786;2023-07-20T14:55:32;25.10;99.90
16976;DHT22;8604;48.148;-1.786;2023-07-20T14:58:02;25.10;99.90
16976;DHT22;8604;48.148;-1.786;2023-07-20T15:00:31;25.20;99.90
16976;DHT22;8604;48.148;-1.786;2023-07-20T15:03:14;25.00;99.90
16976;DHT22;8604;48.148;-1.786;2023-07-20T15:05:43;25.10;99.90
16976;DHT22;8604;48.148;-1.786;2023-07-20T15:08:12;25.10;99.90
16976;DHT22;8604;48.148;-1.786;2023-07-20T15:10:41;25.10;99.90
16976;DHT22;8604;48.148;-1.786;2023-07-20T15:13:14;25.10;99.90
16976;DHT22;8604;48.148;-1.786;2023-07-20T15:15:43;25.10;99.90
16976;DHT22;8604;48.148;-1.786;2023-07-20T15:18:11;25.00;99.90
16976;DHT22;8604;48.148;-1.786;2023-07-20T15:20:40;25.00;99.90
16976;DHT22;8604;48.148;-1.786;2023-07-20T15:23:09;24.90;99.90
16976;DHT22;8604;48.148;-1.786;2023-07-20T15:25:37;24.80;99.90
16976;DHT22;8604;48.148;-1.786;2023-07-20T15:28:06;24.90;99.90
16976;DHT22;8604;48.148;-1.786;2023-07-20T15:30:36;25.00;99.90
16976;DHT22;8604;48.148;-1.786;2023-07-20T15:33:07;24.90;99.90
16976;DHT22;8604;48.148;-1.786;2023-07-20T15:35:42;24.80;99.90
16976;DHT22;8604;48.148;-1.786;2023-07-20T15:38:11;24.80;99.90
16976;DHT22;8604;48.148;-1.786;2023-07-20T15:40:42;24.70;99.90
16976;DHT22;8604;48.148;-1.786;2023-07-20T15:43:11;24.60;99.90
16976;DHT22;8604;48.148;-1.786;2023-07-20T15:45:47;24.50;99.90
16976;DHT22;8604;48.148;-1.786;2023-07-20T15:48:18;24.50;99.90
16976;DHT22;8604;48.148;-1.786;2023-07-20T15:50:49;24.40;99.90
16976;DHT22;8604;48.148;-1.786;2023-07-20T15:53:20;24.50;99.90
16976;DHT22;8604;48.148;-1.786;2023-07-20T15:55:53;24.60;99.90
16976;DHT22;8604;48.148;-1.786;2023-07-20T15:58:23;24.60;99.90
16976;DHT22;8604;48.148;-1.786;2023-07-20T16:00:56;24.40;99.90